createdAt,value
2018-04-06T00:00:07.550Z,84.5
2018-04-06T00:01:09.150Z,84.0
2018-04-06T00:02:10.975Z,84.1
2018-04-06T00:03:12.580Z,84.4
2018-04-06T00:04:14.388Z,84.4
2018-04-06T00:05:16.143Z,84.1
2018-04-06T00:06:17.752Z,84.0
2018-04-06T00:07:19.951Z,84.5
2018-04-06T00:08:21.611Z,84.1
2018-04-06T00:09:23.437Z,84.4
2018-04-06T00:10:24.926Z,84.1
2018-04-06T00:11:27.924Z,84.4
2018-04-06T00:12:29.902Z,84.5
2018-04-06T00:13:32.215Z,84.5
2018-04-06T00:14:34.149Z,84.5
2018-04-06T00:15:35.750Z,84.3
2018-04-06T00:16:37.824Z,84.1
2018-04-06T00:17:39.960Z,84.2
2018-04-06T00:18:41.834Z,84.3
2018-04-06T00:19:43.654Z,84.3
2018-04-06T00:20:45.391Z,84.5
2018-04-06T00:21:47.286Z,84.8
2018-04-06T00:22:49.308Z,84.1
2018-04-06T00:23:51.021Z,84.3
2018-04-06T00:24:52.928Z,84.7
2018-04-06T00:25:54.544Z,84.8
2018-04-06T00:26:56.819Z,84.5
2018-04-06T00:27:58.432Z,84.4
2018-04-06T00:29:00.139Z,84.5
2018-04-06T00:30:01.910Z,84.2
2018-04-06T00:31:03.518Z,84.5
2018-04-06T00:32:05.121Z,84.3
2018-04-06T00:33:06.761Z,84.2
2018-04-06T00:34:08.684Z,84.6
2018-04-06T00:35:10.307Z,85.4
2018-04-06T00:36:11.908Z,84.7
2018-04-06T00:37:13.512Z,84.6
2018-04-06T00:38:15.119Z,84.7
2018-04-06T00:39:16.726Z,84.7
2018-04-06T00:40:18.332Z,84.7
2018-04-06T00:41:19.932Z,84.6
2018-04-06T00:42:22.331Z,84.7
2018-04-06T00:43:23.935Z,84.3
2018-04-06T00:44:25.577Z,84.7
2018-04-06T00:45:27.148Z,85.2
2018-04-06T00:46:28.754Z,85.0
2018-04-06T00:47:30.356Z,85.1
2018-04-06T00:48:31.959Z,85.1
2018-04-06T00:49:33.563Z,85.1
2018-04-06T00:50:35.170Z,84.9
2018-04-06T00:51:36.771Z,85.1
2018-04-06T00:52:38.376Z,85.1
2018-04-06T00:53:39.977Z,85.1
2018-04-06T00:54:41.585Z,85.4
2018-04-06T00:55:43.192Z,85.3
2018-04-06T00:56:44.796Z,85.5
2018-04-06T00:57:46.403Z,85.8
2018-04-06T00:58:48.003Z,85.7
2018-04-06T00:59:49.605Z,85.3
2018-04-06T01:00:51.213Z,85.7
2018-04-06T01:01:52.812Z,85.7
2018-04-06T01:02:54.415Z,85.5
2018-04-06T01:03:56.018Z,85.5
2018-04-06T01:04:57.625Z,85.7
2018-04-06T01:05:59.223Z,85.5
2018-04-06T01:07:00.831Z,86.1
2018-04-06T01:08:02.434Z,85.8
2018-04-06T01:09:04.037Z,86.0
2018-04-06T01:10:05.644Z,85.8
2018-04-06T01:11:07.255Z,85.9
2018-04-06T01:12:08.851Z,86.6
2018-04-06T01:13:10.458Z,86.2
2018-04-06T01:14:12.064Z,86.6
2018-04-06T01:15:13.664Z,86.3
2018-04-06T01:16:15.274Z,85.8
2018-04-06T01:17:16.875Z,85.8
2018-04-06T01:18:18.483Z,85.8
2018-04-06T01:19:20.087Z,86.2
2018-04-06T01:20:21.690Z,85.8
2018-04-06T01:21:23.292Z,86.1
2018-04-06T01:22:24.900Z,86.0
2018-04-06T01:23:26.504Z,86.1
2018-04-06T01:24:28.112Z,86.2
2018-04-06T01:25:29.721Z,85.8
2018-04-06T01:26:31.318Z,86.0
2018-04-06T01:27:32.928Z,86.3
2018-04-06T01:28:34.526Z,86.0
2018-04-06T01:29:36.135Z,86.1
2018-04-06T01:30:37.741Z,86.6
2018-04-06T01:31:39.341Z,86.5
2018-04-06T01:32:40.951Z,86.5
2018-04-06T01:33:42.550Z,86.7
2018-04-06T01:34:44.151Z,86.3
2018-04-06T01:35:45.753Z,86.3
2018-04-06T01:36:47.355Z,86.3
2018-04-06T01:37:48.957Z,86.7
2018-04-06T01:38:50.557Z,86.5
2018-04-06T01:39:52.166Z,86.9
2018-04-06T01:40:53.766Z,87.0
2018-04-06T01:41:55.373Z,87.1
2018-04-06T01:42:56.973Z,86.7
2018-04-06T01:43:58.579Z,86.8
2018-04-06T01:45:00.183Z,86.8
2018-04-06T01:46:01.786Z,86.8
2018-04-06T01:47:03.395Z,86.8
2018-04-06T01:48:04.993Z,86.8
2018-04-06T01:49:06.602Z,87.0
2018-04-06T01:50:08.204Z,86.8
2018-04-06T01:51:09.804Z,86.9
2018-04-06T01:52:11.410Z,87.2
2018-04-06T01:53:13.014Z,87.2
2018-04-06T01:54:14.627Z,87.3
2018-04-06T01:55:16.225Z,87.2
2018-04-06T01:56:17.830Z,87.3
2018-04-06T01:57:19.444Z,87.0
2018-04-06T01:58:21.042Z,87.1
2018-04-06T01:59:22.645Z,87.3
2018-04-06T02:00:24.251Z,87.4
2018-04-06T02:01:25.853Z,86.8
2018-04-06T02:02:27.455Z,87.0
2018-04-06T02:03:29.061Z,87.2
2018-04-06T02:04:30.662Z,87.3
2018-04-06T02:05:32.264Z,86.9
2018-04-06T02:06:33.874Z,87.2
2018-04-06T02:07:35.474Z,87.0
2018-04-06T02:08:37.080Z,87.2
2018-04-06T02:09:38.687Z,87.6
2018-04-06T02:10:40.284Z,87.8
2018-04-06T02:11:41.893Z,87.6
2018-04-06T02:12:43.493Z,87.6
2018-04-06T02:13:45.095Z,87.4
2018-04-06T02:14:46.705Z,87.5
2018-04-06T02:15:48.307Z,87.6
2018-04-06T02:16:49.911Z,87.7
2018-04-06T02:17:51.511Z,87.2
2018-04-06T02:18:53.113Z,88.1
2018-04-06T02:19:54.717Z,87.8
2018-04-06T02:20:56.319Z,88.0
2018-04-06T02:21:57.926Z,87.3
2018-04-06T02:22:59.535Z,87.4
2018-04-06T02:24:01.136Z,87.3
2018-04-06T02:25:02.739Z,87.5
2018-04-06T02:26:04.341Z,88.3
2018-04-06T02:27:05.948Z,88.1
2018-04-06T02:28:07.550Z,88.3
2018-04-06T02:29:09.158Z,88.1
2018-04-06T02:30:10.767Z,88.3
2018-04-06T02:31:12.366Z,88.3
2018-04-06T02:32:13.973Z,88.1
2018-04-06T02:33:15.574Z,87.8
2018-04-06T02:34:17.181Z,87.9
2018-04-06T02:35:18.787Z,88.4
2018-04-06T02:36:20.390Z,88.3
2018-04-06T02:37:22.001Z,87.9
2018-04-06T02:38:23.608Z,87.7
2018-04-06T02:39:25.264Z,88.2
2018-04-06T02:40:26.837Z,88.5
2018-04-06T02:41:28.416Z,88.5
2018-04-06T02:42:30.987Z,88.8
2018-04-06T02:43:32.593Z,88.5
2018-04-06T02:44:34.206Z,88.5
2018-04-06T02:45:35.811Z,88.5
2018-04-06T02:46:37.410Z,88.0
2018-04-06T02:47:39.014Z,88.4
2018-04-06T02:48:40.617Z,88.4
2018-04-06T02:49:42.218Z,88.1
2018-04-06T02:50:43.819Z,88.1
2018-04-06T02:51:45.424Z,88.2
2018-04-06T02:52:47.573Z,88.9
2018-04-06T02:53:49.181Z,88.7
2018-04-06T02:54:50.777Z,88.7
2018-04-06T02:55:52.394Z,88.8
2018-04-06T02:56:53.991Z,88.8
2018-04-06T02:57:55.595Z,88.8
2018-04-06T02:58:57.193Z,88.6
2018-04-06T02:59:58.802Z,88.7
2018-04-06T03:01:00.404Z,88.5
2018-04-06T03:02:02.009Z,88.7
2018-04-06T03:03:03.695Z,88.9
2018-04-06T03:04:05.317Z,88.7
2018-04-06T03:05:06.932Z,88.9
2018-04-06T03:06:08.538Z,89.1
2018-04-06T03:07:10.135Z,88.9
2018-04-06T03:08:11.739Z,88.5
2018-04-06T03:09:13.338Z,89.0
2018-04-06T03:10:14.952Z,88.6
2018-04-06T03:11:16.556Z,88.5
2018-04-06T03:12:18.166Z,88.7
2018-04-06T03:13:19.767Z,89.0
2018-04-06T03:14:21.374Z,88.7
2018-04-06T03:15:22.977Z,88.7
2018-04-06T03:16:24.576Z,89.4
2018-04-06T03:17:26.185Z,89.3
2018-04-06T03:18:27.786Z,89.4
2018-04-06T03:19:29.390Z,89.5
2018-04-06T03:20:30.999Z,88.4
2018-04-06T03:21:32.597Z,89.3
2018-04-06T03:22:34.200Z,89.4
2018-04-06T03:23:35.808Z,89.3
2018-04-06T03:24:37.412Z,89.4
2018-04-06T03:25:39.020Z,88.7
2018-04-06T03:26:40.621Z,88.6
2018-04-06T03:27:42.229Z,89.3
2018-04-06T03:28:43.828Z,88.5
2018-04-06T03:29:45.437Z,88.8
2018-04-06T03:30:47.036Z,88.9
2018-04-06T03:31:48.640Z,89.4
2018-04-06T03:32:50.247Z,88.8
2018-04-06T03:33:51.845Z,89.4
2018-04-06T03:34:53.456Z,88.9
2018-04-06T03:35:55.057Z,88.7
2018-04-06T03:36:56.657Z,89.1
2018-04-06T03:37:58.266Z,88.5
2018-04-06T03:38:59.868Z,89.5
2018-04-06T03:40:01.468Z,89.5
2018-04-06T03:41:03.070Z,89.3
2018-04-06T03:42:04.676Z,89.3
2018-04-06T03:43:06.281Z,88.8
2018-04-06T03:44:07.879Z,89.4
2018-04-06T03:45:09.485Z,88.7
2018-04-06T03:46:11.087Z,89.3
2018-04-06T03:47:12.688Z,89.2
2018-04-06T03:48:14.296Z,88.5
2018-04-06T03:49:15.902Z,88.9
2018-04-06T03:50:17.502Z,89.4
2018-04-06T03:51:19.105Z,89.4
2018-04-06T03:52:20.712Z,89.1
2018-04-06T03:53:22.335Z,89.3
2018-04-06T03:54:23.933Z,88.9
2018-04-06T03:55:25.542Z,88.8
2018-04-06T03:56:27.147Z,88.8
2018-04-06T03:57:28.751Z,89.0
2018-04-06T03:58:30.353Z,88.9
2018-04-06T03:59:31.955Z,88.7
2018-04-06T04:00:33.564Z,89.1
2018-04-06T04:01:35.164Z,89.2
2018-04-06T04:02:36.771Z,88.9
2018-04-06T04:03:38.379Z,88.7
2018-04-06T04:04:39.977Z,89.0
2018-04-06T04:05:41.586Z,89.4
2018-04-06T04:06:43.188Z,88.8
2018-04-06T04:07:44.787Z,89.1
2018-04-06T04:08:46.396Z,88.3
2018-04-06T04:09:48.001Z,89.4
2018-04-06T04:10:49.602Z,89.4
2018-04-06T04:11:51.246Z,89.3
2018-04-06T04:12:52.813Z,88.9
2018-04-06T04:13:54.419Z,89.4
2018-04-06T04:14:56.025Z,89.5
2018-04-06T04:15:57.626Z,89.4
2018-04-06T04:16:59.235Z,89.0
2018-04-06T04:18:00.842Z,89.4
2018-04-06T04:19:02.447Z,89.0
2018-04-06T04:20:04.043Z,88.7
2018-04-06T04:21:05.652Z,88.4
2018-04-06T04:22:07.252Z,88.7
2018-04-06T04:23:08.852Z,88.8
2018-04-06T04:24:10.461Z,88.7
2018-04-06T04:25:12.060Z,88.7
2018-04-06T04:26:13.668Z,88.5
2018-04-06T04:27:15.278Z,88.7
2018-04-06T04:28:16.877Z,88.9
2018-04-06T04:29:18.480Z,88.3
2018-04-06T04:30:20.092Z,89.2
2018-04-06T04:31:21.689Z,89.1
2018-04-06T04:32:23.297Z,88.6
2018-04-06T04:33:24.900Z,89.6
2018-04-06T04:34:26.519Z,88.5
2018-04-06T04:35:28.107Z,88.7
2018-04-06T04:36:29.718Z,88.8
2018-04-06T04:37:31.328Z,88.7
2018-04-06T04:38:32.925Z,88.4
2018-04-06T04:39:34.536Z,88.5
2018-04-06T04:40:36.133Z,89.0
2018-04-06T04:41:37.740Z,88.7
2018-04-06T04:42:39.346Z,88.6
2018-04-06T04:43:40.952Z,88.7
2018-04-06T04:44:42.558Z,88.5
2018-04-06T04:45:44.160Z,88.9
2018-04-06T04:46:45.832Z,89.0
2018-04-06T04:47:47.374Z,88.7
2018-04-06T04:48:48.986Z,88.6
2018-04-06T04:49:50.590Z,88.5
2018-04-06T04:50:52.190Z,88.8
2018-04-06T04:51:53.801Z,88.7
2018-04-06T04:52:55.406Z,88.7
2018-04-06T04:53:57.013Z,88.9
2018-04-06T04:54:58.622Z,88.9
2018-04-06T04:56:00.222Z,89.0
2018-04-06T04:57:01.832Z,89.0
2018-04-06T04:58:03.440Z,88.7
2018-04-06T04:59:05.875Z,88.6
2018-04-06T05:00:07.484Z,88.6
2018-04-06T05:01:09.095Z,88.7
2018-04-06T05:02:10.704Z,88.5
2018-04-06T05:03:12.306Z,88.7
2018-04-06T05:04:13.913Z,88.5
2018-04-06T05:05:15.519Z,88.3
2018-04-06T05:06:17.124Z,88.6
2018-04-06T05:07:18.738Z,88.5
2018-04-06T05:08:20.339Z,88.6
2018-04-06T05:09:21.948Z,88.5
2018-04-06T05:10:23.559Z,88.9
2018-04-06T05:11:25.158Z,88.5
2018-04-06T05:12:26.769Z,88.7
2018-04-06T05:13:28.373Z,88.7
2018-04-06T05:14:29.981Z,88.7
2018-04-06T05:15:31.593Z,88.9
2018-04-06T05:16:33.198Z,89.4
2018-04-06T05:17:34.838Z,89.3
2018-04-06T05:18:36.410Z,88.7
2018-04-06T05:19:38.015Z,89.4
2018-04-06T05:20:39.625Z,89.4
2018-04-06T05:21:41.235Z,89.3
2018-04-06T05:22:42.841Z,88.9
2018-04-06T05:23:44.452Z,89.3
2018-04-06T05:24:46.061Z,89.3
2018-04-06T05:25:47.665Z,88.9
2018-04-06T05:26:49.281Z,89.4
2018-04-06T05:27:50.889Z,89.4
2018-04-06T05:28:52.493Z,89.2
2018-04-06T05:29:54.112Z,89.0
2018-04-06T05:30:55.713Z,89.3
2018-04-06T05:31:57.329Z,89.0
2018-04-06T05:32:58.935Z,89.2
2018-04-06T05:34:00.542Z,89.4
2018-04-06T05:35:02.155Z,89.5
2018-04-06T05:36:03.764Z,89.2
2018-04-06T05:37:05.374Z,89.5
2018-04-06T05:38:07.914Z,89.6
2018-04-06T05:39:09.524Z,90.0
2018-04-06T05:40:11.128Z,89.9
2018-04-06T05:41:12.736Z,88.7
2018-04-06T05:42:14.359Z,88.9
2018-04-06T05:43:15.963Z,88.8
2018-04-06T05:44:17.573Z,89.4
2018-04-06T05:45:19.187Z,89.5
2018-04-06T05:46:20.792Z,89.2
2018-04-06T05:47:22.400Z,88.8
2018-04-06T05:48:24.009Z,88.5
2018-04-06T05:49:25.628Z,88.0
2018-04-06T05:50:27.233Z,89.3
2018-04-06T05:51:28.849Z,90.2
2018-04-06T05:52:30.456Z,90.9
2018-04-06T05:53:32.062Z,90.5
2018-04-06T05:54:33.674Z,91.2
2018-04-06T05:55:35.281Z,91.0
2018-04-06T05:56:36.894Z,90.6
2018-04-06T05:57:38.507Z,91.1
2018-04-06T05:58:40.114Z,91.0
2018-04-06T05:59:41.720Z,91.1
2018-04-06T06:00:44.112Z,91.6
2018-04-06T06:01:45.718Z,91.7
2018-04-06T06:02:47.339Z,91.4
2018-04-06T06:03:48.952Z,91.7
2018-04-06T06:04:50.560Z,91.9
2018-04-06T06:05:52.177Z,91.5
2018-04-06T06:06:53.783Z,91.7
2018-04-06T06:07:55.389Z,92.1
2018-04-06T06:08:57.001Z,91.9
2018-04-06T06:09:58.695Z,92.1
2018-04-06T06:11:00.313Z,92.0
2018-04-06T06:12:01.921Z,92.2
2018-04-06T06:13:03.529Z,92.2
2018-04-06T06:14:05.138Z,95.0
2018-04-06T06:15:06.792Z,100.0
2018-04-06T06:16:08.917Z,100.0
2018-04-06T06:17:10.538Z,100.0
2018-04-06T06:18:12.147Z,100.0
2018-04-06T06:19:13.755Z,98.3
2018-04-06T06:20:15.372Z,96.1
2018-04-06T06:21:16.985Z,94.4
2018-04-06T06:22:18.593Z,91.0
2018-04-06T06:23:20.207Z,88.3
2018-04-06T06:24:21.816Z,87.3
2018-04-06T06:25:23.434Z,85.3
2018-04-06T06:26:25.053Z,81.5
2018-04-06T06:27:26.665Z,81.2
2018-04-06T06:28:28.295Z,78.3
2018-04-06T06:29:29.900Z,76.9
2018-04-06T06:30:31.518Z,76.4
2018-04-06T06:31:33.130Z,76.0
2018-04-06T06:32:34.750Z,74.2
2018-04-06T06:33:36.365Z,71.5
2018-04-06T06:34:37.983Z,69.5
2018-04-06T06:35:39.607Z,66.7
2018-04-06T06:36:41.219Z,66.6
2018-04-06T06:37:42.839Z,65.5
2018-04-06T06:38:44.460Z,67.3
2018-04-06T06:39:46.085Z,67.0
2018-04-06T06:40:47.708Z,64.0
2018-04-06T06:41:49.326Z,64.3
2018-04-06T06:42:50.957Z,62.5
2018-04-06T06:43:52.566Z,61.6
2018-04-06T06:44:54.183Z,62.2
2018-04-06T06:45:55.801Z,61.0
2018-04-06T06:46:57.421Z,58.7
2018-04-06T06:47:59.046Z,57.4
2018-04-06T06:49:00.666Z,56.4
2018-04-06T06:50:02.290Z,55.0
2018-04-06T06:51:03.915Z,52.4
2018-04-06T06:52:05.536Z,51.9
2018-04-06T06:53:07.161Z,51.1
2018-04-06T06:54:08.782Z,49.4
2018-04-06T06:55:10.403Z,48.7
2018-04-06T06:56:12.030Z,49.0
2018-04-06T06:57:13.649Z,48.1
2018-04-06T06:58:15.274Z,47.8
2018-04-06T06:59:17.606Z,46.7
2018-04-06T07:00:19.228Z,46.3
2018-04-06T07:01:20.851Z,44.6
2018-04-06T07:02:23.294Z,44.5
2018-04-06T07:03:24.920Z,43.1
2018-04-06T07:04:26.545Z,43.2
2018-04-06T07:05:28.171Z,44.5
2018-04-06T07:06:29.793Z,43.7
2018-04-06T07:07:31.420Z,42.9
2018-04-06T07:08:33.045Z,42.3
2018-04-06T07:09:34.670Z,41.5
2018-04-06T07:10:36.304Z,41.3
2018-04-06T07:11:37.929Z,41.7
2018-04-06T07:12:39.551Z,41.1
2018-04-06T07:13:41.182Z,40.8
2018-04-06T07:14:42.811Z,39.9
2018-04-06T07:15:44.441Z,39.8
2018-04-06T07:16:46.638Z,39.1
2018-04-06T07:17:48.271Z,35.9
2018-04-06T07:18:49.896Z,35.7
2018-04-06T07:19:51.528Z,35.4
2018-04-06T07:20:53.153Z,36.5
2018-04-06T07:21:54.777Z,36.7
2018-04-06T07:22:56.408Z,36.2
2018-04-06T07:23:58.037Z,34.9
2018-04-06T07:24:59.671Z,34.8
2018-04-06T07:26:01.300Z,34.8
2018-04-06T07:27:02.924Z,34.0
2018-04-06T07:28:04.549Z,31.8
2018-04-06T07:29:06.179Z,31.5
2018-04-06T07:30:07.814Z,30.3
2018-04-06T07:31:09.448Z,30.5
2018-04-06T07:32:11.912Z,29.5
2018-04-06T07:33:13.535Z,30.6
2018-04-06T07:34:15.171Z,30.3
2018-04-06T07:35:16.796Z,31.0
2018-04-06T07:36:18.433Z,29.9
2018-04-06T07:37:20.055Z,29.2
2018-04-06T07:38:21.689Z,29.2
2018-04-06T07:39:23.337Z,29.4
2018-04-06T07:40:24.959Z,27.9
2018-04-06T07:41:26.593Z,27.0
2018-04-06T07:42:28.217Z,26.6
2018-04-06T07:43:29.852Z,27.6
2018-04-06T07:44:31.485Z,28.3
2018-04-06T07:45:33.114Z,28.8
2018-04-06T07:46:34.745Z,29.3
2018-04-06T07:47:36.375Z,29.5
2018-04-06T07:48:38.012Z,29.0
2018-04-06T07:49:39.652Z,28.2
2018-04-06T07:50:41.306Z,28.9
2018-04-06T07:51:42.916Z,28.6
2018-04-06T07:52:44.541Z,28.5
2018-04-06T07:53:46.181Z,28.5
2018-04-06T07:54:47.807Z,27.2
2018-04-06T07:55:49.443Z,28.1
2018-04-06T07:56:51.076Z,26.6
2018-04-06T07:57:52.707Z,26.8
2018-04-06T07:58:54.341Z,27.5
2018-04-06T07:59:55.972Z,28.3
2018-04-06T08:00:57.609Z,28.5
2018-04-06T08:01:59.239Z,28.4
2018-04-06T08:03:00.869Z,27.7
2018-04-06T08:04:03.163Z,28.1
2018-04-06T08:05:04.804Z,28.6
2018-04-06T08:06:06.437Z,28.0
2018-04-06T08:07:08.070Z,28.8
2018-04-06T08:08:09.710Z,29.5
2018-04-06T08:09:11.337Z,28.8
2018-04-06T08:10:12.972Z,28.0
2018-04-06T08:11:14.608Z,28.2
2018-04-06T08:12:16.279Z,27.1
2018-04-06T08:13:17.913Z,25.6
2018-04-06T08:14:19.545Z,26.5
2018-04-06T08:15:21.180Z,26.2
2018-04-06T08:16:22.816Z,25.4
2018-04-06T08:17:24.448Z,25.7
2018-04-06T08:18:26.084Z,25.8
2018-04-06T08:19:27.717Z,26.5
2018-04-06T08:20:29.350Z,25.5
2018-04-06T08:21:30.983Z,26.7
2018-04-06T08:22:32.617Z,25.6
2018-04-06T08:23:34.245Z,25.5
2018-04-06T08:24:35.883Z,25.1
2018-04-06T08:25:37.517Z,24.9
2018-04-06T08:26:39.153Z,24.2
2018-04-06T08:27:40.785Z,24.0
2018-04-06T08:28:43.330Z,24.8
2018-04-06T08:29:44.017Z,25.4
2018-04-06T08:30:45.654Z,25.1
2018-04-06T08:31:47.288Z,23.9
2018-04-06T08:32:48.919Z,23.5
2018-04-06T08:33:50.557Z,23.3
2018-04-06T08:34:52.236Z,24.4
2018-04-06T08:35:53.828Z,24.5
2018-04-06T08:36:55.466Z,24.8
2018-04-06T08:37:57.096Z,25.5
2018-04-06T08:38:58.738Z,24.0
2018-04-06T08:40:00.373Z,23.5
2018-04-06T08:41:02.006Z,23.9
2018-04-06T08:42:03.644Z,23.7
2018-04-06T08:43:05.278Z,23.4
2018-04-06T08:44:06.922Z,24.3
2018-04-06T08:45:08.555Z,24.8
2018-04-06T08:46:10.183Z,24.6
2018-04-06T08:47:11.820Z,25.1
2018-04-06T08:48:13.456Z,24.9
2018-04-06T08:49:15.095Z,23.3
2018-04-06T08:50:16.727Z,25.2
2018-04-06T08:51:18.372Z,24.5
2018-04-06T08:52:20.006Z,23.3
2018-04-06T08:53:21.640Z,22.9
2018-04-06T08:54:23.278Z,23.4
2018-04-06T08:55:24.914Z,23.3
2018-04-06T08:56:26.547Z,24.2
2018-04-06T08:57:28.187Z,25.3
2018-04-06T08:58:29.827Z,24.7
2018-04-06T08:59:31.458Z,24.1
2018-04-06T09:00:33.090Z,24.5
2018-04-06T09:01:34.726Z,25.4
2018-04-06T09:02:36.363Z,24.6
2018-04-06T09:03:38.000Z,25.3
2018-04-06T09:04:39.639Z,25.5
2018-04-06T09:05:41.302Z,25.9
2018-04-06T09:06:42.908Z,25.4
2018-04-06T09:07:44.539Z,25.3
2018-04-06T09:08:46.225Z,24.8
2018-04-06T09:09:47.808Z,23.6
2018-04-06T09:10:49.444Z,23.3
2018-04-06T09:11:51.096Z,23.4
2018-04-06T09:12:52.716Z,24.9
2018-04-06T09:13:54.355Z,25.3
2018-04-06T09:14:55.987Z,24.9
2018-04-06T09:15:57.627Z,23.2
2018-04-06T09:16:59.257Z,23.9
2018-04-06T09:18:00.897Z,23.0
2018-04-06T09:19:02.535Z,23.1
2018-04-06T09:20:04.167Z,23.4
2018-04-06T09:21:05.805Z,23.4
2018-04-06T09:22:07.441Z,22.9
2018-04-06T09:23:09.068Z,23.4
2018-04-06T09:24:10.718Z,24.0
2018-04-06T09:25:12.355Z,23.5
2018-04-06T09:26:13.987Z,22.7
2018-04-06T09:27:15.683Z,22.8
2018-04-06T09:28:17.262Z,22.9
2018-04-06T09:29:18.895Z,22.8
2018-04-06T09:30:20.537Z,23.3
2018-04-06T09:31:22.177Z,23.8
2018-04-06T09:32:23.807Z,22.2
2018-04-06T09:33:25.452Z,23.0
2018-04-06T09:34:27.100Z,23.2
2018-04-06T09:35:28.723Z,21.1
2018-04-06T09:36:30.359Z,21.2
2018-04-06T09:37:31.989Z,21.6
2018-04-06T09:38:33.626Z,21.6
2018-04-06T09:39:35.268Z,22.3
2018-04-06T09:40:36.903Z,22.7
2018-04-06T09:41:38.566Z,21.6
2018-04-06T09:42:40.183Z,21.9
2018-04-06T09:43:41.811Z,23.5
2018-04-06T09:44:43.451Z,21.6
2018-04-06T09:45:45.085Z,21.5
2018-04-06T09:46:46.720Z,22.5
2018-04-06T09:47:48.357Z,21.7
2018-04-06T09:48:49.993Z,21.5
2018-04-06T09:49:51.625Z,21.9
2018-04-06T09:50:53.259Z,22.9
2018-04-06T09:51:54.893Z,23.7
2018-04-06T09:52:56.528Z,23.2
2018-04-06T09:53:58.164Z,22.8
2018-04-06T09:54:59.801Z,21.3
2018-04-06T09:56:01.435Z,21.4
2018-04-06T09:57:03.067Z,21.4
2018-04-06T09:58:04.706Z,21.6
2018-04-06T09:59:06.343Z,21.6
2018-04-06T10:00:07.973Z,21.6
2018-04-06T10:01:09.610Z,22.6
2018-04-06T10:02:11.245Z,22.9
2018-04-06T10:03:12.881Z,22.9
2018-04-06T10:04:14.523Z,23.9
2018-04-06T10:05:16.157Z,24.3
2018-04-06T10:06:17.792Z,23.0
2018-04-06T10:07:19.427Z,22.5
2018-04-06T10:08:21.063Z,21.9
2018-04-06T10:09:22.703Z,22.2
2018-04-06T10:10:24.333Z,21.6
2018-04-06T10:11:25.967Z,21.8
2018-04-06T10:12:27.602Z,22.0
2018-04-06T10:13:29.237Z,20.8
2018-04-06T10:14:30.874Z,20.0
2018-04-06T10:15:32.509Z,18.9
2018-04-06T10:16:34.150Z,20.3
2018-04-06T10:17:35.778Z,20.2
2018-04-06T10:18:37.414Z,20.1
2018-04-06T10:19:39.048Z,20.3
2018-04-06T10:20:40.679Z,20.5
2018-04-06T10:21:42.320Z,20.1
2018-04-06T10:22:44.629Z,21.3
2018-04-06T10:23:46.267Z,18.9
2018-04-06T10:24:47.904Z,19.4
2018-04-06T10:25:49.538Z,21.3
2018-04-06T10:26:51.175Z,21.7
2018-04-06T10:27:52.806Z,19.8
2018-04-06T10:28:54.444Z,20.1
2018-04-06T10:29:56.081Z,18.6
2018-04-06T10:30:57.725Z,19.1
2018-04-06T10:31:59.356Z,20.5
2018-04-06T10:33:00.992Z,18.9
2018-04-06T10:34:02.628Z,20.9
2018-04-06T10:35:04.264Z,19.7
2018-04-06T10:36:05.898Z,18.8
2018-04-06T10:37:07.537Z,17.5
2018-04-06T10:38:09.174Z,17.5
2018-04-06T10:39:10.812Z,18.7
2018-04-06T10:40:12.447Z,17.7
2018-04-06T10:41:14.084Z,17.1
2018-04-06T10:42:15.722Z,19.0
2018-04-06T10:43:17.358Z,19.1
2018-04-06T10:44:18.993Z,18.2
2018-04-06T10:45:20.631Z,18.2
2018-04-06T10:46:22.267Z,19.2
2018-04-06T10:47:23.903Z,19.1
2018-04-06T10:48:25.537Z,20.0
2018-04-06T10:49:27.172Z,18.8
2018-04-06T10:50:28.811Z,18.2
2018-04-06T10:51:30.445Z,19.1
2018-04-06T10:52:32.080Z,18.9
2018-04-06T10:53:33.718Z,20.1
2018-04-06T10:54:35.400Z,21.0
2018-04-06T10:55:37.035Z,20.8
2018-04-06T10:56:38.674Z,20.1
2018-04-06T10:57:40.312Z,19.8
2018-04-06T10:58:41.946Z,20.0
2018-04-06T10:59:43.588Z,18.8
2018-04-06T11:00:45.223Z,17.4
2018-04-06T11:01:46.858Z,16.8
2018-04-06T11:02:48.493Z,17.4
2018-04-06T11:03:50.130Z,19.1
2018-04-06T11:04:51.767Z,18.9
2018-04-06T11:05:53.403Z,17.0
2018-04-06T11:06:55.040Z,18.4
2018-04-06T11:07:56.684Z,17.7
2018-04-06T11:08:58.319Z,17.6
2018-04-06T11:09:59.953Z,17.5
2018-04-06T11:11:01.593Z,17.3
2018-04-06T11:12:03.229Z,17.8
2018-04-06T11:13:04.866Z,17.5
2018-04-06T11:14:06.504Z,18.6
2018-04-06T11:15:08.144Z,18.2
2018-04-06T11:16:09.776Z,18.9
2018-04-06T11:17:11.412Z,20.4
2018-04-06T11:18:13.050Z,19.0
2018-04-06T11:19:14.692Z,21.3
2018-04-06T11:20:16.324Z,20.8
2018-04-06T11:21:17.963Z,18.8
2018-04-06T11:22:19.600Z,18.1
2018-04-06T11:23:21.232Z,16.9
2018-04-06T11:24:22.867Z,17.1
2018-04-06T11:25:24.501Z,18.0
2018-04-06T11:26:26.136Z,18.7
2018-04-06T11:27:27.772Z,18.5
2018-04-06T11:28:29.410Z,17.7
2018-04-06T11:29:31.045Z,16.9
2018-04-06T11:30:33.658Z,16.7
2018-04-06T11:31:35.292Z,18.2
2018-04-06T11:32:36.926Z,18.2
2018-04-06T11:33:38.561Z,18.9
2018-04-06T11:34:40.194Z,19.0
2018-04-06T11:35:41.831Z,18.7
2018-04-06T11:36:43.470Z,18.2
2018-04-06T11:37:45.098Z,18.2
2018-04-06T11:38:46.731Z,20.0
2018-04-06T11:39:48.368Z,18.6
2018-04-06T11:40:50.010Z,18.0
2018-04-06T11:41:51.639Z,18.7
2018-04-06T11:42:53.272Z,18.7
2018-04-06T11:43:54.918Z,17.6
2018-04-06T11:44:56.545Z,17.1
2018-04-06T11:45:58.179Z,17.2
2018-04-06T11:46:59.817Z,17.3
2018-04-06T11:48:01.451Z,17.7
2018-04-06T11:49:03.088Z,16.9
2018-04-06T11:50:04.729Z,16.8
2018-04-06T11:51:06.362Z,17.1
2018-04-06T11:52:07.997Z,16.6
2018-04-06T11:53:09.629Z,17.1
2018-04-06T11:54:11.280Z,17.0
2018-04-06T11:55:12.902Z,18.2
2018-04-06T11:56:14.537Z,17.1
2018-04-06T11:57:16.179Z,17.5
2018-04-06T11:58:17.814Z,17.3
2018-04-06T11:59:19.448Z,17.1
2018-04-06T12:00:21.083Z,17.1
2018-04-06T12:01:22.717Z,16.2
2018-04-06T12:02:24.353Z,16.4
2018-04-06T12:03:25.995Z,15.4
2018-04-06T12:04:27.632Z,15.6
2018-04-06T12:05:29.265Z,14.1
2018-04-06T12:06:30.900Z,14.6
2018-04-06T12:07:32.534Z,15.4
2018-04-06T12:08:34.709Z,15.3
2018-04-06T12:09:36.349Z,14.3
2018-04-06T12:10:37.986Z,15.5
2018-04-06T12:11:39.623Z,16.4
2018-04-06T12:12:41.258Z,15.2
2018-04-06T12:13:42.891Z,15.1
2018-04-06T12:14:44.527Z,15.7
2018-04-06T12:15:46.162Z,16.0
2018-04-06T12:16:47.804Z,16.9
2018-04-06T12:17:49.435Z,16.3
2018-04-06T12:18:51.071Z,15.1
2018-04-06T12:19:52.706Z,16.0
2018-04-06T12:20:54.342Z,15.3
2018-04-06T12:21:55.977Z,14.7
2018-04-06T12:22:57.612Z,15.5
2018-04-06T12:23:59.247Z,15.3
2018-04-06T12:25:00.882Z,15.2
2018-04-06T12:26:02.522Z,15.5
2018-04-06T12:27:04.156Z,14.3
2018-04-06T12:28:05.789Z,13.6
2018-04-06T12:29:07.422Z,13.5
2018-04-06T12:30:09.058Z,14.0
2018-04-06T12:31:10.692Z,14.6
2018-04-06T12:32:12.324Z,14.0
2018-04-06T12:33:13.961Z,14.8
2018-04-06T12:34:15.596Z,14.0
2018-04-06T12:35:17.231Z,14.3
2018-04-06T12:36:18.866Z,15.2
2018-04-06T12:37:21.447Z,13.8
2018-04-06T12:38:22.087Z,13.6
2018-04-06T12:39:23.724Z,14.3
2018-04-06T12:40:26.273Z,14.1
2018-04-06T12:41:27.912Z,13.0
2018-04-06T12:42:29.544Z,13.5
2018-04-06T12:43:31.175Z,13.5
2018-04-06T12:44:32.810Z,13.4
2018-04-06T12:45:34.444Z,13.1
2018-04-06T12:46:36.080Z,11.9
2018-04-06T12:47:37.721Z,12.3
2018-04-06T12:48:39.358Z,12.8
2018-04-06T12:49:40.987Z,12.1
2018-04-06T12:50:42.691Z,12.2
2018-04-06T12:51:44.329Z,12.7
2018-04-06T12:52:45.961Z,13.2
2018-04-06T12:53:47.611Z,12.0
2018-04-06T12:54:49.246Z,13.0
2018-04-06T12:55:50.940Z,12.7
2018-04-06T12:56:52.515Z,13.6
2018-04-06T12:57:54.144Z,14.3
2018-04-06T12:58:55.778Z,13.6
2018-04-06T12:59:57.414Z,13.9
2018-04-06T13:00:59.047Z,13.9
2018-04-06T13:02:00.713Z,13.6
2018-04-06T13:03:02.382Z,14.0
2018-04-06T13:04:03.981Z,12.7
2018-04-06T13:05:05.612Z,12.9
2018-04-06T13:06:07.246Z,12.9
2018-04-06T13:07:08.879Z,13.1
2018-04-06T13:08:10.511Z,14.3
2018-04-06T13:09:12.147Z,14.0
2018-04-06T13:10:13.781Z,13.8
2018-04-06T13:11:15.411Z,13.6
2018-04-06T13:12:17.049Z,12.5
2018-04-06T13:13:18.676Z,11.9
2018-04-06T13:14:20.310Z,12.2
2018-04-06T13:15:21.942Z,12.9
2018-04-06T13:16:23.576Z,12.8
2018-04-06T13:17:25.210Z,12.6
2018-04-06T13:18:26.842Z,12.4
2018-04-06T13:19:28.472Z,13.9
2018-04-06T13:20:30.105Z,13.4
2018-04-06T13:21:31.738Z,13.1
2018-04-06T13:22:33.369Z,13.7
2018-04-06T13:23:35.003Z,13.8
2018-04-06T13:24:37.184Z,13.4
2018-04-06T13:25:38.813Z,13.0
2018-04-06T13:26:40.444Z,12.3
2018-04-06T13:27:42.076Z,12.2
2018-04-06T13:28:43.707Z,12.6
2018-04-06T13:29:45.339Z,13.8
2018-04-06T13:30:46.975Z,14.1
2018-04-06T13:31:48.608Z,13.4
2018-04-06T13:32:50.237Z,13.5
2018-04-06T13:33:51.868Z,13.6
2018-04-06T13:34:53.497Z,13.1
2018-04-06T13:35:55.129Z,13.6
2018-04-06T13:36:56.763Z,13.2
2018-04-06T13:37:58.396Z,12.9
2018-04-06T13:39:00.033Z,13.8
2018-04-06T13:40:01.658Z,13.6